RJTYRJSF

Guest
Details From RJTY - YOKOTA AB
To RJSF - Fukushima
Flight Number -
Tags generated
Created
Modified
Stats Distance 103 nm / 191 km
Max Altitude 11,100 ft / 3,383 m
Waypoints 3
Social Downloads 2
Likes 0
Share VATSIM

Download

Looking for another format? Having issues loading an existing format? Contact us
Advertisement - Login to hide

Notes

Basic altitude profile: - Ascent Rate: 2500ft/min - Ascent Speed: 250kts - Cruise Altitude: 35000ft - Cruise Speed: 420kts - Descent Rate: 1500ft/min - Descent Speed: 250kts Options: - Use NATs: yes - Use PACOTS: yes - Use low airways: yes - Use high airways: no

Route

RJTY JD RJSF

ID Type Via Altitude Latitude Longitude Leg Dist Tot Dist Heading (true) Name
O RJTY APT - 0 ft / 0 m 35.74849˚ 139.34848˚ - 0 nm - YOKOTA AB
JD NDB - 11,100 ft / 3,383 m 36.48982˚ 139.86339˚ 51 nm 51 nm 29° / 29° NIKKO NDB
O RJSF APT - 0 ft / 0 m 37.22743˚ 140.42797˚ 51 nm 102 nm 31° / 32° Fukushima

Altitude Profile

Advertisement - Login to hide

RJTY

Details ICAO RJTY (OKO)
Name YOKOTA AB
Region Japan
Timezone Asia/Tokyo (UTC+9.0)
Stats Elevation 463 ft / 141 m (AMSL)
Location 35.748493° 139.348482°
Runways 1
Magnetic Variation 7.555° W

METAR

RJTY 130856Z AUTO 02013KT 10SM R36/4500FT OVC080 05/M07 A3000 RMK AO2 SLP170 T00471071 FZRANO $

Decode

TAF

TAF AMD RJTY 130740Z 1307/1411 01012G18KT 9999 SCT050 510805 QNH2992INS TEMPO 1307/1312 03015G25KT BECMG 1322/1323 32020G30KT 9999 FEW050 520805 QNH3010INS BECMG 1403/1404 32010G15KT 9999 FEW050 QNH3012INS TX10/1307Z TNM03/1318Z

Decode

Departure Runways

ID Width Length Bearing (true) Bearing (mag) Surface Threshold Offset Overrun Length
18 200 ft / 61 m 11,028 ft / 3,361 m 170.33° 177.89° Concrete 0 ft / 0 m 1,000 ft / 305 m
36 200 ft / 61 m 11,028 ft / 3,361 m 350.34° 357.90° Concrete 0 ft / 0 m 1,000 ft / 305 m

RJSF

Details ICAO RJSF (FKS)
Name Fukushima
Region Japan
Timezone Asia/Tokyo (UTC+9.0)
Stats Elevation 1,220 ft / 372 m (AMSL)
Location 37.227429° 140.427974°
Runways 1
Magnetic Variation 7.868° W

METAR

RJSF 130900Z 31005KT 280V340 9999 -SHSN FEW010 BKN030 M01/M06 Q1014

Decode

TAF

TAF RJSF 130505Z 1306/1412 32013KT 9999 FEW020 SCT040 TEMPO 1400/1406 32020G30KT

Decode

Destination Runways

ID Width Length Bearing (true) Bearing (mag) Surface Threshold Offset Overrun Length
01 197 ft / 60 m 8,219 ft / 2,505 m 2.19° 10.06° Asphalt 0 ft / 0 m 197 ft / 60 m
19 197 ft / 60 m 8,219 ft / 2,505 m 182.19° 190.06° Asphalt 0 ft / 0 m 197 ft / 60 m

Approach Navaids

Runway Type Ident Frequency Range Bearing (true) Bearing (mag) Slope Elevation
01 Localiser IFK 110.50 MHz 18 nm / 33 km 2.19° 10.06° - 1,220 ft / 372 m (AMSL)
01 Glidescope IFK 110.50 MHz 10 nm / 19 km 2.19° 10.06° 3.00° 1,220 ft / 372 m (AMSL)
01 DME IFK 110.50 MHz 18 nm / 33 km - - - 1,223 ft / 373 m (AMSL)